Garfield, Washington
Current Conditions -  °F | °C
As of 12:53 AM on Wednesday 28 Jan 2015 (Local Time) from KPUW Reporting Station
Moderate Fog Moderate Fog  
Wind Chill: 29°   Ceiling: 200
Heat Index: 38°   Visibility: 0.5mi
Dew Point: 37°   Wind: 16mph
Humidity: 97%   Direction: 260°W
Pressure: 30.18"   Gusts: NA
Location:  47.01°N, 117.14°W
Report Text: KPUW 280853Z AUTO 26014KT 1/2SM FG VV002 03/03 A3018 RMK AO2 SLP231 T00330028 53008
Loading
Personal Weather Stations






























Interactive Weather Map New forecast layout! Learn more

10-Day Weather Forecast

Advertisements
Track Severe Weather on mobile